Time;durP1;ratioP1;P1;durP2;ratioP2;P2;SDS_P1;SDS_P2;PMS_P1;PMS_P2;Temp;Humidity;BMP_temperature;BMP_pressure;BME280_temperature;BME280_humidity;BME280_pressure;Samples;Min_cycle;Max_cycle;Signal;HPM_P1;HPM_P2
2023/01/14 00:01:30;;;;;;;8.18;5.10;;;;;;;-5.15;65.87;101892.88;1871673;77;21075;-50
2023/01/14 00:03:59;;;;;;;18.75;8.90;;;;;;;-5.16;65.79;101895.00;1871818;76;21119;-51
2023/01/14 00:06:31;;;;;;;18.57;7.85;;;;;;;-5.17;65.72;101884.66;1871739;77;21547;-49
2023/01/14 00:09:02;;;;;;;26.33;6.60;;;;;;;-5.19;65.63;101881.14;1871924;76;21548;-46
2023/01/14 00:11:47;;;;;;;23.27;6.37;;;;;;;-5.19;65.57;101885.86;1872091;76;21119;-47
2023/01/14 00:14:21;;;;;;;14.68;6.65;;;;;;;-5.21;65.52;101883.64;1871899;77;21103;-46
2023/01/14 00:16:52;;;;;;;14.50;7.22;;;;;;;-5.22;65.48;101883.15;1871889;77;21119;-49
2023/01/14 00:19:22;;;;;;;12.95;6.72;;;;;;;-5.22;65.59;101882.28;1871900;77;21103;-48
2023/01/14 00:21:51;;;;;;;15.48;7.67;;;;;;;-5.25;65.52;101880.47;1871828;77;21467;-49
2023/01/14 00:24:21;;;;;;;21.82;6.70;;;;;;;-5.30;65.53;101875.53;1871795;77;21491;-48
2023/01/14 00:26:52;;;;;;;11.85;8.58;;;;;;;-5.30;65.45;101879.38;1871892;77;21209;-52
2023/01/14 00:29:24;;;;;;;15.23;7.37;;;;;;;-5.32;65.45;101881.01;1889668;75;21177;-50
2023/01/14 00:31:56;;;;;;;19.12;7.58;;;;;;;-5.29;65.38;101888.86;1868061;75;21675;-51
2023/01/14 00:34:27;;;;;;;20.62;8.25;;;;;;;-5.30;65.39;101880.67;1884664;75;21093;-51
2023/01/14 00:36:56;;;;;;;15.18;6.65;;;;;;;-5.31;65.37;101885.31;1871948;75;21014;-46
2023/01/14 00:39:26;;;;;;;33.85;13.18;;;;;;;-5.34;65.37;101873.65;1871849;77;21559;-52
2023/01/14 00:41:54;;;;;;;15.70;5.60;;;;;;;-5.35;65.64;101878.30;1883330;75;21585;-48
2023/01/14 00:44:23;;;;;;;17.27;9.83;;;;;;;-5.36;65.47;101879.99;1884532;75;21047;-53
2023/01/14 00:46:53;;;;;;;18.30;8.25;;;;;;;-5.37;65.50;101875.66;1877763;75;21032;-50
2023/01/14 00:49:24;;;;;;;31.65;9.08;;;;;;;-5.43;65.29;101866.41;1877784;75;21052;-55
2023/01/14 00:51:53;;;;;;;20.50;8.70;;;;;;;-5.41;65.29;101876.75;1871731;76;21034;-53
2023/01/14 00:54:22;;;;;;;24.55;8.80;;;;;;;-5.41;65.29;101876.75;1871793;77;21121;-54
2023/01/14 00:56:50;;;;;;;35.85;14.25;;;;;;;-5.41;65.36;101878.03;1871815;77;21087;-54
2023/01/14 00:59:22;;;;;;;16.87;7.75;;;;;;;-5.48;65.73;101873.02;1871909;76;21080;-53
2023/01/14 01:01:51;;;;;;;32.95;13.28;;;;;;;-5.55;66.00;101874.45;1871784;77;21110;-55
2023/01/14 01:04:20;;;;;;;14.85;6.35;;;;;;;-5.61;66.24;101870.31;1886489;75;21440;-57
2023/01/14 01:06:49;;;;;;;24.12;6.80;;;;;;;-5.66;66.73;101874.38;1871862;77;21123;-56
2023/01/14 01:09:19;;;;;;;17.07;7.92;;;;;;;-5.74;66.76;101877.86;1871673;76;21076;-56
2023/01/14 01:11:48;;;;;;;35.83;12.85;;;;;;;-5.74;66.76;101877.86;1871834;76;21081;-56
2023/01/14 01:14:16;;;;;;;20.50;7.80;;;;;;;-5.77;67.17;101874.27;1871819;77;21017;-54
2023/01/14 01:16:45;;;;;;;28.98;12.82;;;;;;;-5.80;67.62;101873.73;1871862;77;21093;-56
2023/01/14 01:19:14;;;;;;;14.68;8.08;;;;;;;-5.80;67.45;101867.73;1871784;76;21144;-56
2023/01/14 01:21:42;;;;;;;16.62;7.78;;;;;;;-5.79;67.54;101869.48;1871856;77;21120;-55
2023/01/14 01:24:11;;;;;;;16.77;9.10;;;;;;;-5.79;67.41;101863.97;1871764;77;21186;-55
2023/01/14 01:26:41;;;;;;;16.48;7.20;;;;;;;-5.80;67.88;101862.19;1871843;77;21239;-56
2023/01/14 01:29:10;;;;;;;28.98;10.63;;;;;;;-5.82;67.85;101855.70;1895489;74;21033;-57
2023/01/14 01:31:39;;;;;;;11.63;6.70;;;;;;;-5.84;67.74;101861.17;1909110;74;21570;-52
2023/01/14 01:34:07;;;;;;;19.60;8.90;;;;;;;-5.82;67.64;101854.84;1923673;74;21046;-54
2023/01/14 01:36:36;;;;;;;35.33;12.50;;;;;;;-5.82;67.72;101853.55;1923459;74;21530;-54
2023/01/14 01:39:05;;;;;;;27.02;10.53;;;;;;;-5.83;67.82;101851.40;1904418;74;21513;-55
2023/01/14 01:41:34;;;;;;;13.55;5.85;;;;;;;-5.82;67.74;101847.14;1913470;74;21130;-55
2023/01/14 01:44:16;;;;;;;20.82;8.00;;;;;;;-5.81;67.65;101841.18;1890633;76;21681;-55
2023/01/14 01:46:44;;;;;;;11.12;6.28;;;;;;;-5.80;67.48;101839.52;1890621;75;21190;-49
2023/01/14 01:49:25;;;;;;;25.25;8.28;;;;;;;-5.80;67.40;101845.52;1894894;74;21153;-55
2023/01/14 01:52:03;;;;;;;21.52;8.15;;;;;;;-5.78;67.28;101836.61;1922614;74;21063;-55
2023/01/14 01:54:37;;;;;;;6.50;4.30;;;;;;;-5.76;67.22;101833.30;1920378;74;21236;-54
2023/01/14 01:57:09;;;;;;;16.02;8.88;;;;;;;-5.76;67.09;101833.71;1892326;74;21211;-51
2023/01/14 01:59:41;;;;;;;23.10;10.75;;;;;;;-5.76;67.09;101839.70;1890673;74;21055;-54
2023/01/14 02:02:11;;;;;;;25.88;12.63;;;;;;;-5.77;67.53;101839.64;1890436;76;21591;-54
2023/01/14 02:04:39;;;;;;;24.75;9.25;;;;;;;-5.84;67.67;101830.39;1890577;76;21074;-53
2023/01/14 02:07:25;;;;;;;9.83;6.62;;;;;;;-5.87;67.81;101840.50;1890568;76;21189;-53
2023/01/14 02:10:00;;;;;;;12.25;6.30;;;;;;;-5.88;67.71;101841.33;1893425;74;21572;-52
2023/01/14 02:12:44;;;;;;;17.52;8.05;;;;;;;-5.89;67.99;101846.38;1895654;74;21170;-52
2023/01/14 02:15:42;;;;;;;14.07;7.80;;;;;;;-5.91;67.71;101854.41;1887550;76;21031;-54
2023/01/14 02:18:41;;;;;;;10.82;5.10;;;;;;;-5.91;67.59;101854.41;1877413;76;21118;-52
2023/01/14 02:21:12;;;;;;;31.17;10.05;;;;;;;-5.90;67.46;101858.34;1857025;76;21510;-57
2023/01/14 02:23:56;;;;;;;18.55;8.80;;;;;;;-5.88;67.50;101859.28;1853779;77;21042;-54
2023/01/14 02:26:39;;;;;;;18.87;9.30;;;;;;;-5.92;67.84;101859.95;1846527;78;21510;-53
2023/01/14 02:29:29;;;;;;;17.85;7.58;;;;;;;-6.02;68.09;101861.64;1844964;77;21055;-54
2023/01/14 02:32:07;;;;;;;24.57;7.30;;;;;;;-6.06;68.23;101864.88;1930444;74;21070;-52
2023/01/14 02:34:48;;;;;;;14.58;5.37;;;;;;;-6.11;68.20;101866.34;1910211;74;21082;-54
2023/01/14 02:37:36;;;;;;;8.00;4.40;;;;;;;-6.11;68.10;101865.06;1847760;78;21079;-53
2023/01/14 02:40:08;;;;;;;3.15;2.50;;;;;;;-6.10;67.99;101869.39;1912318;75;21211;-52
2023/01/14 02:45:40;;;;;;;23.25;7.17;;;;;;;-6.14;68.03;101861.96;1914641;75;21014;-53
2023/01/14 02:48:11;;;;;;;20.20;7.70;;;;;;;-6.15;68.08;101859.31;1878067;76;21027;-54
2023/01/14 02:50:42;;;;;;;20.30;6.67;;;;;;;-6.14;68.07;101861.06;1912431;75;21073;-53
2023/01/14 02:53:12;;;;;;;16.85;8.25;;;;;;;-6.15;68.17;101863.16;1877619;76;21466;-54
2023/01/14 02:55:41;;;;;;;8.30;4.40;;;;;;;-6.15;68.36;101872.14;1914767;75;21085;-51
2023/01/14 02:58:29;;;;;;;9.45;4.20;;;;;;;-6.15;68.49;101868.30;1877355;76;21079;-52
2023/01/14 03:00:59;;;;;;;;;;;;;;;-6.16;68.38;101863.95;1915048;75;21117;-51
2023/01/14 03:03:32;;;;;;;4.55;3.25;;;;;;;-6.17;68.45;101868.63;1914305;75;20108;-52
2023/01/14 03:06:27;;;;;;;11.83;6.17;;;;;;;-6.17;68.25;101866.06;1877859;76;21078;-50
2023/01/14 03:09:00;;;;;;;20.68;8.23;;;;;;;-6.19;68.66;101865.98;1914278;74;21103;-51
2023/01/14 03:11:41;;;;;;;21.87;9.30;;;;;;;-6.18;68.51;101869.42;1865069;76;21177;-51
2023/01/14 03:14:15;;;;;;;7.20;4.83;;;;;;;-6.21;68.78;101876.16;1881673;76;21062;-47
2023/01/14 03:16:49;;;;;;;10.72;5.25;;;;;;;-6.23;69.33;101872.65;1881824;75;21034;-46
2023/01/14 03:19:26;;;;;;;14.30;7.58;;;;;;;-6.23;69.18;101871.37;1881224;76;21120;-48
2023/01/14 03:21:57;;;;;;;21.00;8.93;;;;;;;-6.24;69.26;101864.47;1888919;75;21030;-49
2023/01/14 03:24:36;;;;;;;9.60;6.90;;;;;;;-6.25;69.29;101865.30;1878177;76;21078;-49
2023/01/14 03:27:12;;;;;;;7.67;4.15;;;;;;;-6.26;69.26;101866.09;1914688;75;21168;-48
2023/01/14 03:29:45;;;;;;;18.37;5.42;;;;;;;-6.27;69.39;101864.72;1857386;76;21075;-50
2023/01/14 03:32:17;;;;;;;2.98;1.90;;;;;;;-6.28;69.23;101865.14;1882033;76;21110;-49
2023/01/14 03:34:51;;;;;;;24.07;5.58;;;;;;;-6.30;69.25;101862.91;1881880;76;21595;-50
2023/01/14 03:37:22;;;;;;;13.75;8.98;;;;;;;-6.32;69.50;101858.53;1881208;76;21124;-48
2023/01/14 03:39:52;;;;;;;19.60;8.48;;;;;;;-6.33;69.56;101867.87;1884308;75;21007;-51
2023/01/14 03:42:23;;;;;;;27.35;10.28;;;;;;;-6.33;69.74;101866.59;1882102;76;21034;-55
2023/01/14 03:45:10;;;;;;;12.30;5.17;;;;;;;-6.35;69.89;101877.18;1882152;76;21070;-52
2023/01/14 03:47:40;;;;;;;13.50;5.03;;;;;;;-6.36;70.09;101872.88;1882241;76;21030;-53
2023/01/14 03:50:18;;;;;;;10.63;4.70;;;;;;;-6.38;70.15;101879.62;1884388;75;21014;-54
2023/01/14 03:52:59;;;;;;;11.00;5.72;;;;;;;-6.40;70.00;101886.33;1882142;76;21042;-55
2023/01/14 03:55:42;;;;;;;22.27;7.15;;;;;;;-6.46;70.01;101883.48;1881592;76;21039;-54
2023/01/14 03:58:30;;;;;;;20.60;6.17;;;;;;;-6.48;70.12;101885.95;1881827;76;21159;-53
2023/01/14 04:01:08;;;;;;;14.80;5.40;;;;;;;-6.45;69.75;101883.97;1884508;75;21035;-49
2023/01/14 04:03:37;;;;;;;10.55;6.40;;;;;;;-6.43;69.56;101878.52;1881020;76;21049;-49
2023/01/14 04:06:09;;;;;;;11.18;5.55;;;;;;;-6.44;69.48;101872.48;1882168;76;21011;-49
2023/01/14 04:08:37;;;;;;;10.65;4.55;;;;;;;-6.40;69.47;101870.95;1881981;76;21062;-48
2023/01/14 04:11:06;;;;;;;22.75;7.30;;;;;;;-6.42;69.69;101869.62;1883610;75;21050;-51
2023/01/14 04:16:21;;;;;;;27.45;11.22;;;;;;;-6.52;69.83;101875.50;1882138;76;21014;-52
2023/01/14 04:18:50;;;;;;;24.47;9.28;;;;;;;-6.57;69.97;101876.95;1882203;76;21066;-55
2023/01/14 04:21:18;;;;;;;5.37;2.80;;;;;;;-6.60;70.04;101872.16;1883052;75;21031;-57
2023/01/14 04:23:47;;;;;;;4.85;3.25;;;;;;;-6.61;69.79;101868.23;1882158;76;21054;-54
2023/01/14 04:26:16;;;;;;;5.90;4.28;;;;;;;-6.60;69.89;101872.57;1882037;76;21101;-51
2023/01/14 04:28:44;;;;;;;2.92;2.12;;;;;;;-6.58;69.61;101870.96;1883072;75;21054;-56
2023/01/14 04:31:14;;;;;;;2.40;2.12;;;;;;;-6.57;69.74;101862.86;1882365;76;21046;-49
2023/01/14 04:33:43;;;;;;;6.28;3.25;;;;;;;-6.55;69.59;101865.09;1885101;75;21047;-51
2023/01/14 04:36:13;;;;;;;7.80;3.58;;;;;;;-6.54;69.62;101866.86;1891506;76;21028;-50
2023/01/14 04:38:42;;;;;;;11.18;6.05;;;;;;;-6.52;69.56;101863.97;1890989;75;21125;-53
2023/01/14 04:42:26;;;;;;;6.40;4.42;;;;;;;-6.50;69.58;101864.92;1893628;74;21109;-48
2023/01/14 04:43:41;;;;;;;9.20;4.80;;;;;;;-6.48;69.43;101868.02;1888370;76;21007;-51
2023/01/14 04:46:10;;;;;;;7.90;4.97;;;;;;;-6.46;69.33;101865.54;1891428;76;21039;-52
2023/01/14 04:48:38;;;;;;;5.90;3.37;;;;;;;-6.44;69.21;101867.77;1891422;76;21063;-53
2023/01/14 04:51:07;;;;;;;17.02;6.35;;;;;;;-6.41;69.07;101862.80;1893598;74;21075;-53
2023/01/14 04:53:36;;;;;;;14.40;4.80;;;;;;;-6.39;68.92;101864.16;1891325;75;21047;-52
2023/01/14 04:56:05;;;;;;;13.60;6.30;;;;;;;-6.41;68.94;101861.52;1891407;76;21099;-51
2023/01/14 04:58:33;;;;;;;7.67;4.95;;;;;;;-6.40;68.99;101861.98;1891546;76;21039;-52
2023/01/14 05:01:02;;;;;;;23.00;7.75;;;;;;;-6.38;68.96;101866.80;1901089;74;21572;-53
2023/01/14 05:03:31;;;;;;;12.58;7.20;;;;;;;-6.37;68.98;101861.27;1887714;76;21034;-52
2023/01/14 05:05:59;;;;;;;10.15;5.40;;;;;;;-6.37;69.06;101858.70;1877764;76;21125;-52
2023/01/14 05:08:28;;;;;;;15.75;8.13;;;;;;;-6.39;69.22;101861.19;1877856;76;21095;-52
2023/01/14 05:10:57;;;;;;;8.80;4.28;;;;;;;-6.39;69.22;101854.78;1875083;76;21130;-53
2023/01/14 05:13:25;;;;;;;14.63;5.97;;;;;;;-6.37;69.41;101863.83;1846346;78;21043;-52
2023/01/14 05:15:57;;;;;;;7.33;3.67;;;;;;;-6.35;69.25;101869.49;1846329;78;21027;-52
2023/01/14 05:18:25;;;;;;;19.05;6.45;;;;;;;-6.31;69.12;101866.27;1845684;78;21138;-52
2023/01/14 05:20:54;;;;;;;22.02;8.28;;;;;;;-6.23;69.00;101867.94;1846290;78;21011;-52
2023/01/14 05:23:23;;;;;;;15.58;8.33;;;;;;;-6.18;69.09;101868.14;1865300;76;21087;-49
2023/01/14 05:25:52;;;;;;;11.50;7.03;;;;;;;-6.02;69.10;101878.31;1931612;74;21030;-52
2023/01/14 05:28:21;;;;;;;18.75;5.85;;;;;;;-6.02;69.10;101878.31;1879371;76;21540;-50
2023/01/14 05:30:50;;;;;;;12.75;6.28;;;;;;;-5.91;68.97;101874.94;1859496;77;21055;-50
2023/01/14 05:33:19;;;;;;;23.45;8.83;;;;;;;-5.78;68.82;101870.84;1931601;74;21576;-52
2023/01/14 05:35:47;;;;;;;13.88;6.25;;;;;;;-5.66;68.67;101878.23;1880051;75;21114;-52
2023/01/14 05:38:16;;;;;;;14.38;7.67;;;;;;;-5.52;68.50;101879.70;1914613;75;21066;-52
2023/01/14 05:40:44;;;;;;;8.28;5.42;;;;;;;-5.24;68.27;101882.20;1867156;76;21042;-52
2023/01/14 05:46:02;;;;;;;26.50;7.50;;;;;;;-4.60;67.62;101890.50;1868773;77;21486;-51
2023/01/14 05:48:31;;;;;;;14.98;6.55;;;;;;;-4.30;67.04;101878.03;1904360;74;21032;-52
2023/01/14 05:51:01;;;;;;;18.23;7.40;;;;;;;-3.92;66.64;101865.05;1845855;77;21047;-50
2023/01/14 05:53:30;;;;;;;21.65;8.23;;;;;;;-3.54;66.03;101865.05;1872661;77;21040;-52
2023/01/14 05:56:00;;;;;;;9.93;5.75;;;;;;;-3.06;65.42;101870.61;1872515;76;21105;-50
2023/01/14 05:58:28;;;;;;;26.25;8.18;;;;;;;-2.58;65.01;101873.52;1872734;77;21490;-54
2023/01/14 06:06:47;;;;;;;17.40;6.00;;;;;;;-1.46;62.34;101881.23;1872604;76;21091;-52
2023/01/14 06:09:16;;;;;;;13.85;7.25;;;;;;;-1.72;62.45;101874.89;1872583;76;21040;-52
2023/01/14 06:12:02;;;;;;;15.00;5.95;;;;;;;-2.20;62.79;101879.02;1873214;75;21165;-48
2023/01/14 06:14:24;;;;;;;8.60;4.17;;;;;;;-3.08;63.85;101873.94;1872228;76;21114;-50
2023/01/14 06:16:53;;;;;;;17.20;7.50;;;;;;;-3.08;63.85;101873.94;1872732;77;21098;-55
2023/01/14 06:19:22;;;;;;;8.68;3.52;;;;;;;-3.34;64.21;101902.22;1872816;77;21185;-52
2023/01/14 06:21:50;;;;;;;10.93;4.95;;;;;;;-3.53;65.01;101870.64;1874902;75;21118;-49
2023/01/14 06:24:19;;;;;;;11.63;6.15;;;;;;;-3.59;65.21;101876.00;1872841;76;21048;-50
2023/01/14 06:26:48;;;;;;;16.82;5.30;;;;;;;-3.70;65.59;101873.89;1872640;77;21549;-53
2023/01/14 06:29:17;;;;;;;13.98;6.25;;;;;;;-3.69;65.82;101872.19;1880577;75;21044;-52
2023/01/14 06:31:45;;;;;;;6.95;3.17;;;;;;;-3.60;65.95;101877.67;1868700;77;21027;-51
2023/01/14 06:34:14;;;;;;;24.95;8.23;;;;;;;-3.46;65.97;101875.62;1905122;75;21166;-52
2023/01/14 06:36:43;;;;;;;20.80;7.80;;;;;;;-3.31;66.00;101890.33;1884003;76;21058;-52
2023/01/14 06:39:11;;;;;;;26.60;10.43;;;;;;;-3.16;65.94;101859.09;1918187;74;21470;-50
2023/01/14 06:41:40;;;;;;;22.93;7.28;;;;;;;-3.05;65.90;101876.64;1907453;74;21470;-52
2023/01/14 06:44:09;;;;;;;12.68;5.72;;;;;;;-3.05;65.81;101877.92;1884850;76;21132;-52
2023/01/14 06:46:37;;;;;;;23.80;10.43;;;;;;;-3.03;65.91;101881.42;1912273;74;21066;-53
2023/01/14 06:49:06;;;;;;;22.90;9.03;;;;;;;-2.92;65.93;101888.70;1913115;74;21020;-54
2023/01/14 06:51:34;;;;;;;25.57;9.00;;;;;;;-2.77;65.88;101892.62;1884902;76;21026;-50
2023/01/14 06:54:08;;;;;;;21.93;9.25;;;;;;;-2.67;65.74;101892.13;1924793;74;21063;-55
2023/01/14 06:56:53;;;;;;;;;;;;;;;;;;;;;
2023/01/14 06:59:13;;;;;;;8.03;4.65;;;;;;;-2.49;65.77;101886.72;1920371;74;21552;-56
2023/01/14 07:01:42;;;;;;;17.80;6.30;;;;;;;-2.39;65.83;101886.59;1922218;74;21193;-49
2023/01/14 07:04:12;;;;;;;18.52;8.13;;;;;;;-2.24;65.65;101874.59;1893996;74;21046;-52
2023/01/14 07:06:41;;;;;;;28.67;8.08;;;;;;;-2.04;65.45;101876.09;1893748;74;21023;-53
2023/01/14 07:09:13;;;;;;;17.55;7.00;;;;;;;-1.80;65.30;101881.13;1919905;74;21506;-53
2023/01/14 07:11:42;;;;;;;29.35;10.53;;;;;;;-1.44;65.12;101880.85;1924914;74;21454;-54
2023/01/14 07:14:13;;;;;;;21.00;9.98;;;;;;;-1.26;64.71;101876.20;1917384;74;20999;-53
2023/01/14 07:16:41;;;;;;;27.82;10.10;;;;;;;-1.10;64.43;101881.81;1891613;75;21105;-54
2023/01/14 07:19:11;;;;;;;29.98;9.85;;;;;;;-0.60;64.19;101875.36;1898698;74;21148;-55
2023/01/14 07:21:40;;;;;;;25.82;9.75;;;;;;;0.02;63.25;101875.54;1884818;76;21434;-53
2023/01/14 07:24:09;;;;;;;24.18;9.23;;;;;;;0.26;62.97;101878.19;1924807;74;21071;-54
2023/01/14 07:26:37;;;;;;;18.23;8.05;;;;;;;0.26;63.05;101876.50;1884910;76;21006;-54
2023/01/14 07:29:06;;;;;;;24.30;9.08;;;;;;;0.27;63.00;101870.88;1924790;74;21003;-53
2023/01/14 07:31:35;;;;;;;21.73;8.95;;;;;;;0.34;63.07;101872.77;1856439;76;21120;-54
2023/01/14 07:34:05;;;;;;;23.83;9.48;;;;;;;0.40;63.04;101873.31;1889999;75;21133;-53
2023/01/14 07:36:34;;;;;;;24.40;9.05;;;;;;;0.46;63.08;101882.50;1865614;76;21160;-53
2023/01/14 07:39:02;;;;;;;23.07;7.72;;;;;;;0.50;63.15;101880.42;1846883;77;21042;-54
2023/01/14 07:41:31;;;;;;;27.15;10.98;;;;;;;0.55;63.06;101880.10;1863633;75;21508;-50
2023/01/14 07:44:00;;;;;;;27.35;11.15;;;;;;;0.64;62.98;101888.49;1867751;76;21120;-54
2023/01/14 07:46:29;;;;;;;33.88;12.63;;;;;;;0.67;62.93;101873.87;1867715;77;21553;-53
2023/01/14 07:48:58;;;;;;;37.85;12.95;;;;;;;0.67;62.84;101878.20;1867758;77;21066;-53
2023/01/14 07:51:26;;;;;;;38.23;14.68;;;;;;;0.70;62.80;101874.34;1869302;75;21065;-54
2023/01/14 07:53:55;;;;;;;40.12;13.90;;;;;;;0.76;62.69;101879.25;1867924;75;21054;-53
2023/01/14 07:56:24;;;;;;;34.85;12.05;;;;;;;0.82;62.68;101885.41;1867750;76;21047;-54
2023/01/14 07:58:52;;;;;;;29.80;12.35;;;;;;;0.88;62.57;101874.70;1867643;75;21036;-53
2023/01/14 08:01:21;;;;;;;31.62;12.25;;;;;;;0.95;62.48;101877.00;1869947;75;21014;-53
2023/01/14 08:03:49;;;;;;;35.15;12.05;;;;;;;1.41;62.05;101872.63;1867783;76;21093;-51
2023/01/14 08:06:18;;;;;;;32.98;11.40;;;;;;;1.66;61.56;101869.12;1881537;75;21124;-50
2023/01/14 08:08:46;;;;;;;13.55;5.83;;;;;;;1.83;61.42;101875.48;1900160;75;21011;-49
2023/01/14 08:11:15;;;;;;;27.65;9.83;;;;;;;1.91;61.29;101870.39;1899964;74;21086;-51
2023/01/14 08:13:44;;;;;;;17.23;7.58;;;;;;;1.88;61.39;101869.94;1897612;75;21529;-54
2023/01/14 08:16:13;;;;;;;16.32;7.62;;;;;;;1.98;61.28;101869.62;1900010;75;21011;-48
2023/01/14 08:18:43;;;;;;;24.50;8.28;;;;;;;1.89;61.38;101866.90;1899620;75;21638;-50
2023/01/14 08:21:12;;;;;;;19.90;8.13;;;;;;;2.38;60.84;101869.29;1897793;75;21030;-50
2023/01/14 08:23:43;;;;;;;28.45;9.40;;;;;;;2.49;60.92;101862.50;1878346;75;21120;-57
2023/01/14 08:26:13;;;;;;;32.03;9.73;;;;;;;2.56;61.03;101856.52;1867492;77;21108;-57
2023/01/14 08:28:48;;;;;;;37.03;10.58;;;;;;;2.60;60.96;101853.53;1867822;77;21422;-56
2023/01/14 08:31:18;;;;;;;19.45;8.35;;;;;;;2.60;61.05;101851.83;1868717;75;21050;-55
2023/01/14 08:33:46;;;;;;;17.75;8.08;;;;;;;3.46;60.03;101847.88;1870160;75;21559;-56
2023/01/14 08:36:20;;;;;;;19.07;8.20;;;;;;;3.88;59.20;101841.69;1837415;75;21211;-57
2023/01/14 08:38:51;;;;;;;;;;;;;;;3.77;59.13;101839.00;1875672;76;21488;-56
2023/01/14 08:41:20;;;;;;;18.05;8.18;;;;;;;3.66;59.37;101836.31;1873687;75;20193;-53
2023/01/14 08:44:08;;;;;;;20.30;9.60;;;;;;;3.65;59.39;101831.95;1872820;77;21172;-54
2023/01/14 08:46:41;;;;;;;18.77;8.13;;;;;;;3.68;59.44;101833.29;1866821;74;21084;-55
2023/01/14 08:49:11;;;;;;;21.20;7.50;;;;;;;3.80;59.48;101836.39;1868631;77;21051;-55
2023/01/14 08:51:39;;;;;;;15.90;7.25;;;;;;;3.52;59.86;101828.39;1868069;77;21047;-55
2023/01/14 08:54:08;;;;;;;17.85;8.20;;;;;;;3.31;60.34;101835.61;1819861;79;21031;-50
2023/01/14 08:56:37;;;;;;;17.42;5.45;;;;;;;3.17;60.55;101832.01;1836799;77;21105;-55
2023/01/14 08:59:05;;;;;;;20.62;9.08;;;;;;;3.04;60.59;101824.52;1858971;77;21054;-55
2023/01/14 09:01:34;;;;;;;29.72;8.40;;;;;;;2.95;60.79;101834.42;1888327;76;21484;-55
2023/01/14 09:04:02;;;;;;;25.68;9.38;;;;;;;2.96;60.91;101830.95;1869050;77;21043;-58
2023/01/14 09:17:04;;;;;;;20.57;8.98;;;;;;;2.85;60.77;101831.27;1820808;77;21185;-58
2023/01/14 09:17:22;;;;;;;31.55;9.93;;;;;;;3.09;60.50;101803.31;1816048;78;21072;-58
2023/01/14 09:19:55;;;;;;;33.35;11.85;;;;;;;3.05;60.79;101807.62;1806287;79;21161;-57
2023/01/14 09:22:30;;;;;;;27.58;11.08;;;;;;;3.00;60.93;101808.44;1828400;77;21058;-58
2023/01/14 09:24:59;;;;;;;23.75;10.20;;;;;;;3.01;61.02;101807.59;1835531;77;21130;-57
2023/01/14 09:27:30;;;;;;;35.10;12.10;;;;;;;2.95;61.03;101803.20;1880180;76;21039;-56
2023/01/14 09:29:58;;;;;;;36.35;13.75;;;;;;;2.87;61.11;101797.04;1866658;77;21024;-57
2023/01/14 09:32:27;;;;;;;28.47;11.83;;;;;;;2.80;61.23;101793.50;1866593;77;21048;-57
2023/01/14 09:34:57;;;;;;;37.45;13.70;;;;;;;2.73;61.43;101798.63;1866391;77;21048;-58
2023/01/14 09:37:29;;;;;;;34.15;11.25;;;;;;;2.68;61.54;101791.66;1867495;76;21213;-57
2023/01/14 09:39:57;;;;;;;37.40;13.22;;;;;;;2.60;61.85;101795.02;1867924;77;21177;-57
2023/01/14 09:42:32;;;;;;;28.98;11.68;;;;;;;2.58;62.06;101789.80;1869571;76;21038;-57
2023/01/14 09:45:16;;;;;;;30.85;11.78;;;;;;;2.63;62.02;101790.73;1888368;76;21221;-56
2023/01/14 09:47:46;;;;;;;34.50;13.28;;;;;;;2.61;61.90;101791.58;1835399;78;21068;-56
2023/01/14 09:50:20;;;;;;;30.08;12.73;;;;;;;2.57;61.92;101788.08;1853354;77;21096;-55
2023/01/14 09:53:13;;;;;;;38.48;13.50;;;;;;;2.52;62.28;101784.55;1858105;76;21575;-56
2023/01/14 09:56:01;;;;;;;25.62;11.83;;;;;;;2.53;62.52;101786.30;1859005;77;21188;-56
2023/01/14 09:58:40;;;;;;;28.25;11.93;;;;;;;2.64;62.46;101775.58;1891661;75;21119;-57
2023/01/14 10:01:17;;;;;;;34.88;14.38;;;;;;;2.71;62.23;101771.30;1858714;77;21122;-56
2023/01/14 10:03:55;;;;;;;36.10;12.58;;;;;;;2.76;62.00;101768.32;1859008;75;21153;-57
2023/01/14 10:06:25;;;;;;;32.65;13.43;;;;;;;2.79;61.95;101763.59;1890580;74;21527;-56
2023/01/14 10:09:00;;;;;;;31.73;13.18;;;;;;;2.81;61.90;101763.17;1858143;77;21501;-55
2023/01/14 10:11:31;;;;;;;38.25;14.45;;;;;;;2.82;61.96;101760.59;1858238;77;21559;-56
2023/01/14 10:14:21;;;;;;;40.05;15.65;;;;;;;2.82;61.93;101764.50;1891730;76;21442;-59
2023/01/14 10:16:57;;;;;;;43.45;13.95;;;;;;;2.78;61.90;101755.33;1840051;77;21197;-57
2023/01/14 10:19:59;;;;;;;28.75;13.78;;;;;;;2.79;61.97;101763.59;1816646;79;21227;-57
2023/01/14 10:23:07;;;;;;;43.20;14.68;;;;;;;2.78;62.18;101758.80;1869906;76;21588;-58
2023/01/14 10:28:13;;;;;;;37.35;13.93;;;;;;;2.78;62.25;101757.94;1745425;80;21185;-55
2023/01/14 10:31:05;;;;;;;33.25;14.58;;;;;;;2.79;62.16;101757.95;1908438;75;21118;-58
2023/01/14 10:33:36;;;;;;;40.67;15.45;;;;;;;2.87;62.20;101751.52;1915631;74;21455;-58
2023/01/14 10:36:08;;;;;;;37.48;14.65;;;;;;;2.96;62.12;101749.00;1915268;75;21197;-57
2023/01/14 10:38:44;;;;;;;33.50;14.90;;;;;;;2.99;62.03;101745.13;1881951;76;21628;-57
2023/01/14 10:41:48;;;;;;;31.37;11.43;;;;;;;3.03;61.87;101746.89;1917774;75;21153;-57
2023/01/14 10:43:51;;;;;;;35.13;12.37;;;;;;;3.09;61.77;101735.66;1898674;75;21079;-59
2023/01/14 10:46:19;;;;;;;38.63;14.40;;;;;;;3.09;61.72;101735.22;1924796;74;21039;-59
2023/01/14 10:49:00;;;;;;;36.60;13.55;;;;;;;3.12;61.79;101732.19;1915243;75;21573;-58
2023/01/14 10:51:38;;;;;;;36.13;13.25;;;;;;;3.16;61.83;101733.55;1875994;76;21168;-62
2023/01/14 10:54:32;;;;;;;37.88;15.45;;;;;;;3.17;61.98;101733.11;1883366;75;21137;-57
2023/01/14 10:57:00;;;;;;;38.40;14.78;;;;;;;3.18;62.00;101732.27;1882642;76;21054;-57
2023/01/14 10:59:47;;;;;;;36.68;14.73;;;;;;;3.23;62.06;101731.87;1884239;76;21152;-57
2023/01/14 11:02:40;;;;;;;37.75;15.32;;;;;;;3.26;61.92;101730.57;1883984;76;21116;-57
2023/01/14 11:05:24;;;;;;;43.20;14.75;;;;;;;3.31;61.78;101734.08;1884341;76;21171;-56
2023/01/14 11:07:59;;;;;;;31.90;14.58;;;;;;;3.31;61.79;101730.18;1884402;75;21102;-56
2023/01/14 11:10:28;;;;;;;36.80;13.55;;;;;;;3.28;61.81;101724.53;1882782;76;21121;-60
2023/01/14 11:13:15;;;;;;;35.98;14.40;;;;;;;3.29;61.83;101724.09;1884321;76;21574;-57
2023/01/14 11:15:47;;;;;;;38.78;15.10;;;;;;;3.32;61.82;101730.64;1928262;73;21040;-57
2023/01/14 11:18:28;;;;;;;38.17;14.90;;;;;;;3.36;61.83;101721.98;1916738;75;21079;-57
2023/01/14 11:21:09;;;;;;;37.05;14.40;;;;;;;3.37;61.75;101718.49;1913082;75;21211;-60
2023/01/14 11:23:43;;;;;;;26.60;12.68;;;;;;;3.38;61.80;101719.39;1912682;75;21034;-55
2023/01/14 11:26:17;;;;;;;36.85;14.13;;;;;;;3.36;61.97;101728.92;1914591;73;21493;-57
2023/01/14 11:28:47;;;;;;;30.10;13.40;;;;;;;3.36;61.88;101729.78;1902982;75;21039;-59
2023/01/14 11:31:18;;;;;;;39.75;14.53;;;;;;;3.38;61.74;101728.06;1927682;73;21048;-60
2023/01/14 11:33:52;;;;;;;35.10;14.23;;;;;;;3.39;61.59;101724.58;1951566;73;21070;-59
2023/01/14 11:36:26;;;;;;;40.33;14.05;;;;;;;3.42;61.72;101729.81;1953526;73;21024;-59
2023/01/14 11:38:57;;;;;;;41.95;16.35;;;;;;;3.48;61.64;101724.63;1953615;73;21027;-59
2023/01/14 11:41:42;;;;;;;38.60;14.43;;;;;;;3.54;61.49;101729.45;1952653;73;21004;-58
2023/01/14 11:44:21;;;;;;;47.95;16.23;;;;;;;3.55;61.35;101728.16;1952345;73;21141;-59
2023/01/14 11:47:15;;;;;;;43.75;16.50;;;;;;;3.53;61.38;101721.21;1979811;72;21553;-59
2023/01/14 11:49:44;;;;;;;44.77;16.30;;;;;;;3.48;61.56;101724.63;1984306;72;21089;-58
2023/01/14 11:52:21;;;;;;;37.48;13.70;;;;;;;3.47;61.62;101729.86;1957203;73;21062;-59
2023/01/14 11:54:52;;;;;;;38.15;14.83;;;;;;;3.48;61.59;101729.84;1946023;73;21151;-57
2023/01/14 11:57:22;;;;;;;31.33;13.35;;;;;;;3.49;61.45;101741.16;1955131;73;21106;-59
2023/01/14 11:59:53;;;;;;;45.40;14.33;;;;;;;3.51;61.35;101737.27;1955988;72;21432;-57
2023/01/14 12:02:29;;;;;;;38.90;14.83;;;;;;;3.53;61.19;101731.63;1955739;73;21126;-47
2023/01/14 12:05:07;;;;;;;42.65;15.85;;;;;;;3.56;61.14;101733.82;1956573;73;21042;-47
2023/01/14 12:07:37;;;;;;;45.38;16.00;;;;;;;3.61;61.21;101731.23;1956837;72;21095;-46
2023/01/14 12:10:18;;;;;;;32.45;14.83;;;;;;;3.61;61.20;101724.72;1956534;73;21517;-47